sensor_id;sensor_type;location;lat;lon;timestamp;temperature;humidity
39777;DHT22;25453;48.162;14.510;2023-02-28T00:01:21;3.50;56.70
39777;DHT22;25453;48.162;14.510;2023-02-28T00:03:48;3.50;56.80
39777;DHT22;25453;48.162;14.510;2023-02-28T00:06:15;3.40;56.90
39777;DHT22;25453;48.162;14.510;2023-02-28T00:08:42;3.40;56.80
39777;DHT22;25453;48.162;14.510;2023-02-28T00:11:11;3.30;57.20
39777;DHT22;25453;48.162;14.510;2023-02-28T00:13:39;3.20;57.30
39777;DHT22;25453;48.162;14.510;2023-02-28T00:16:10;3.20;57.70
39777;DHT22;25453;48.162;14.510;2023-02-28T00:18:37;3.30;58.10
39777;DHT22;25453;48.162;14.510;2023-02-28T00:21:04;3.30;57.60
39777;DHT22;25453;48.162;14.510;2023-02-28T00:23:31;3.30;57.70
39777;DHT22;25453;48.162;14.510;2023-02-28T00:25:58;3.30;57.90
39777;DHT22;25453;48.162;14.510;2023-02-28T00:28:25;3.30;57.90
39777;DHT22;25453;48.162;14.510;2023-02-28T00:30:52;3.30;57.80
39777;DHT22;25453;48.162;14.510;2023-02-28T00:33:19;3.30;57.80
39777;DHT22;25453;48.162;14.510;2023-02-28T00:35:46;3.30;58.00
39777;DHT22;25453;48.162;14.510;2023-02-28T00:38:14;3.30;58.10
39777;DHT22;25453;48.162;14.510;2023-02-28T00:40:41;3.30;57.90
39777;DHT22;25453;48.162;14.510;2023-02-28T00:43:08;3.20;57.90
39777;DHT22;25453;48.162;14.510;2023-02-28T00:45:35;3.20;58.40
39777;DHT22;25453;48.162;14.510;2023-02-28T00:48:02;3.20;58.40
39777;DHT22;25453;48.162;14.510;2023-02-28T00:50:29;3.30;58.50
39777;DHT22;25453;48.162;14.510;2023-02-28T00:52:56;3.30;58.20
39777;DHT22;25453;48.162;14.510;2023-02-28T00:55:23;3.30;58.40
39777;DHT22;25453;48.162;14.510;2023-02-28T00:57:50;3.30;58.50
39777;DHT22;25453;48.162;14.510;2023-02-28T01:00:17;3.30;58.60
39777;DHT22;25453;48.162;14.510;2023-02-28T01:02:44;3.40;58.60
39777;DHT22;25453;48.162;14.510;2023-02-28T01:05:11;3.40;58.20
39777;DHT22;25453;48.162;14.510;2023-02-28T01:07:37;3.30;58.30
39777;DHT22;25453;48.162;14.510;2023-02-28T01:10:05;3.30;58.30
39777;DHT22;25453;48.162;14.510;2023-02-28T01:12:32;3.30;58.50
39777;DHT22;25453;48.162;14.510;2023-02-28T01:14:59;3.30;58.40
39777;DHT22;25453;48.162;14.510;2023-02-28T01:17:26;3.30;58.50
39777;DHT22;25453;48.162;14.510;2023-02-28T01:19:53;3.20;58.60
39777;DHT22;25453;48.162;14.510;2023-02-28T01:22:21;3.20;58.80
39777;DHT22;25453;48.162;14.510;2023-02-28T01:24:48;3.30;58.80
39777;DHT22;25453;48.162;14.510;2023-02-28T01:27:15;3.30;58.90
39777;DHT22;25453;48.162;14.510;2023-02-28T01:29:42;3.30;58.80
39777;DHT22;25453;48.162;14.510;2023-02-28T01:32:09;3.30;58.90
39777;DHT22;25453;48.162;14.510;2023-02-28T01:34:36;3.30;58.80
39777;DHT22;25453;48.162;14.510;2023-02-28T01:37:03;3.30;58.50
39777;DHT22;25453;48.162;14.510;2023-02-28T01:39:30;3.20;58.70
39777;DHT22;25453;48.162;14.510;2023-02-28T01:41:57;3.20;58.70
39777;DHT22;25453;48.162;14.510;2023-02-28T01:47:09;3.10;58.80
39777;DHT22;25453;48.162;14.510;2023-02-28T01:49:36;3.10;59.00
39777;DHT22;25453;48.162;14.510;2023-02-28T01:52:03;3.10;59.00
39777;DHT22;25453;48.162;14.510;2023-02-28T01:54:31;3.10;58.90
39777;DHT22;25453;48.162;14.510;2023-02-28T01:56:59;3.10;59.10
39777;DHT22;25453;48.162;14.510;2023-02-28T01:59:30;3.10;59.10
39777;DHT22;25453;48.162;14.510;2023-02-28T02:02:00;3.10;59.10
39777;DHT22;25453;48.162;14.510;2023-02-28T02:04:27;3.10;59.10
39777;DHT22;25453;48.162;14.510;2023-02-28T02:06:57;3.10;59.00
39777;DHT22;25453;48.162;14.510;2023-02-28T02:09:25;3.10;59.10
39777;DHT22;25453;48.162;14.510;2023-02-28T02:11:52;3.10;59.00
39777;DHT22;25453;48.162;14.510;2023-02-28T02:30:42;3.10;59.10
39777;DHT22;25453;48.162;14.510;2023-02-28T02:33:17;3.00;59.20
39777;DHT22;25453;48.162;14.510;2023-02-28T02:44:11;3.10;59.50
39777;DHT22;25453;48.162;14.510;2023-02-28T02:46:42;3.10;59.30
39777;DHT22;25453;48.162;14.510;2023-02-28T02:49:15;3.10;59.00
39777;DHT22;25453;48.162;14.510;2023-02-28T02:51:43;3.00;59.10
39777;DHT22;25453;48.162;14.510;2023-02-28T02:54:12;3.00;59.30
39777;DHT22;25453;48.162;14.510;2023-02-28T02:56:43;3.00;59.20
39777;DHT22;25453;48.162;14.510;2023-02-28T02:59:11;3.00;59.00
39777;DHT22;25453;48.162;14.510;2023-02-28T03:01:40;3.00;58.80
39777;DHT22;25453;48.162;14.510;2023-02-28T03:04:09;2.90;58.90
39777;DHT22;25453;48.162;14.510;2023-02-28T03:06:38;2.90;59.10
39777;DHT22;25453;48.162;14.510;2023-02-28T03:09:05;2.90;59.10
39777;DHT22;25453;48.162;14.510;2023-02-28T03:11:34;2.90;59.20
39777;DHT22;25453;48.162;14.510;2023-02-28T03:26:31;2.90;59.40
39777;DHT22;25453;48.162;14.510;2023-02-28T03:29:19;3.00;59.40
39777;DHT22;25453;48.162;14.510;2023-02-28T03:31:53;3.00;59.20
39777;DHT22;25453;48.162;14.510;2023-02-28T03:34:24;3.00;58.90
39777;DHT22;25453;48.162;14.510;2023-02-28T03:36:53;2.90;58.90
39777;DHT22;25453;48.162;14.510;2023-02-28T03:39:23;2.90;58.70
39777;DHT22;25453;48.162;14.510;2023-02-28T03:41:54;2.90;58.90
39777;DHT22;25453;48.162;14.510;2023-02-28T03:44:41;2.90;59.10
39777;DHT22;25453;48.162;14.510;2023-02-28T03:49:43;2.90;59.00
39777;DHT22;25453;48.162;14.510;2023-02-28T03:52:12;2.90;59.10
39777;DHT22;25453;48.162;14.510;2023-02-28T03:54:43;2.90;59.00
39777;DHT22;25453;48.162;14.510;2023-02-28T03:59:44;2.90;58.90
39777;DHT22;25453;48.162;14.510;2023-02-28T04:02:12;2.90;59.10
39777;DHT22;25453;48.162;14.510;2023-02-28T04:04:39;2.90;59.10
39777;DHT22;25453;48.162;14.510;2023-02-28T04:07:11;2.90;59.10
39777;DHT22;25453;48.162;14.510;2023-02-28T04:09:38;2.90;59.00
39777;DHT22;25453;48.162;14.510;2023-02-28T04:12:05;2.90;59.10
39777;DHT22;25453;48.162;14.510;2023-02-28T04:14:32;2.90;59.00
39777;DHT22;25453;48.162;14.510;2023-02-28T04:16:59;2.90;58.90
39777;DHT22;25453;48.162;14.510;2023-02-28T04:19:26;2.90;58.80
39777;DHT22;25453;48.162;14.510;2023-02-28T04:21:53;2.90;58.90
39777;DHT22;25453;48.162;14.510;2023-02-28T04:24:24;2.90;58.90
39777;DHT22;25453;48.162;14.510;2023-02-28T04:26:52;2.90;58.80
39777;DHT22;25453;48.162;14.510;2023-02-28T04:29:26;2.90;58.80
39777;DHT22;25453;48.162;14.510;2023-02-28T04:31:54;2.90;58.60
39777;DHT22;25453;48.162;14.510;2023-02-28T04:34:25;2.90;58.60
39777;DHT22;25453;48.162;14.510;2023-02-28T04:36:52;2.80;58.80
39777;DHT22;25453;48.162;14.510;2023-02-28T04:39:38;2.90;58.90
39777;DHT22;25453;48.162;14.510;2023-02-28T04:42:05;2.90;58.60
39777;DHT22;25453;48.162;14.510;2023-02-28T04:44:32;2.80;58.70
39777;DHT22;25453;48.162;14.510;2023-02-28T04:46:59;2.80;58.80
39777;DHT22;25453;48.162;14.510;2023-02-28T04:49:26;2.80;58.80
39777;DHT22;25453;48.162;14.510;2023-02-28T04:51:53;2.80;58.60
39777;DHT22;25453;48.162;14.510;2023-02-28T04:54:20;2.70;58.80
39777;DHT22;25453;48.162;14.510;2023-02-28T04:56:47;2.70;58.80
39777;DHT22;25453;48.162;14.510;2023-02-28T04:59:16;2.70;58.80
39777;DHT22;25453;48.162;14.510;2023-02-28T05:01:47;2.70;58.60
39777;DHT22;25453;48.162;14.510;2023-02-28T05:04:15;2.70;58.50
39777;DHT22;25453;48.162;14.510;2023-02-28T05:06:42;2.70;58.60
39777;DHT22;25453;48.162;14.510;2023-02-28T05:09:09;2.60;58.60
39777;DHT22;25453;48.162;14.510;2023-02-28T05:11:38;2.60;58.30
39777;DHT22;25453;48.162;14.510;2023-02-28T05:14:09;2.60;58.50
39777;DHT22;25453;48.162;14.510;2023-02-28T05:16:36;2.60;58.40
39777;DHT22;25453;48.162;14.510;2023-02-28T05:19:03;2.50;58.40
39777;DHT22;25453;48.162;14.510;2023-02-28T05:21:32;2.50;58.90
39777;DHT22;25453;48.162;14.510;2023-02-28T05:24:00;2.50;59.00
39777;DHT22;25453;48.162;14.510;2023-02-28T05:26:27;2.50;58.90
39777;DHT22;25453;48.162;14.510;2023-02-28T05:28:55;2.50;58.50
39777;DHT22;25453;48.162;14.510;2023-02-28T05:31:22;2.50;58.60
39777;DHT22;25453;48.162;14.510;2023-02-28T05:33:49;2.40;58.40
39777;DHT22;25453;48.162;14.510;2023-02-28T05:36:16;2.30;58.50
39777;DHT22;25453;48.162;14.510;2023-02-28T05:38:45;2.30;58.90
39777;DHT22;25453;48.162;14.510;2023-02-28T05:41:12;2.30;59.10
39777;DHT22;25453;48.162;14.510;2023-02-28T05:43:39;2.30;59.40
39777;DHT22;25453;48.162;14.510;2023-02-28T05:46:06;2.30;59.40
39777;DHT22;25453;48.162;14.510;2023-02-28T05:48:34;2.30;59.10
39777;DHT22;25453;48.162;14.510;2023-02-28T05:51:01;2.30;59.10
39777;DHT22;25453;48.162;14.510;2023-02-28T05:53:29;2.30;59.00
39777;DHT22;25453;48.162;14.510;2023-02-28T05:55:56;2.30;59.10
39777;DHT22;25453;48.162;14.510;2023-02-28T05:58:23;2.30;59.20
39777;DHT22;25453;48.162;14.510;2023-02-28T06:00:52;2.30;59.20
39777;DHT22;25453;48.162;14.510;2023-02-28T06:03:18;2.20;59.30
39777;DHT22;25453;48.162;14.510;2023-02-28T06:05:45;2.20;58.90
39777;DHT22;25453;48.162;14.510;2023-02-28T06:08:12;2.20;59.10
39777;DHT22;25453;48.162;14.510;2023-02-28T06:10:39;2.20;59.10
39777;DHT22;25453;48.162;14.510;2023-02-28T06:13:06;2.20;59.00
39777;DHT22;25453;48.162;14.510;2023-02-28T06:15:33;2.10;59.30
39777;DHT22;25453;48.162;14.510;2023-02-28T06:18:00;2.20;59.50
39777;DHT22;25453;48.162;14.510;2023-02-28T06:20:27;2.20;59.20
39777;DHT22;25453;48.162;14.510;2023-02-28T06:22:57;2.20;59.10
39777;DHT22;25453;48.162;14.510;2023-02-28T06:25:27;2.10;59.20
39777;DHT22;25453;48.162;14.510;2023-02-28T06:27:54;2.10;59.60
39777;DHT22;25453;48.162;14.510;2023-02-28T06:30:21;2.10;59.60
39777;DHT22;25453;48.162;14.510;2023-02-28T06:32:52;2.10;59.50
39777;DHT22;25453;48.162;14.510;2023-02-28T06:35:19;2.10;59.80
39777;DHT22;25453;48.162;14.510;2023-02-28T06:37:46;2.10;59.60
39777;DHT22;25453;48.162;14.510;2023-02-28T06:40:13;2.10;59.90
39777;DHT22;25453;48.162;14.510;2023-02-28T06:42:40;2.10;60.30
39777;DHT22;25453;48.162;14.510;2023-02-28T06:45:08;2.20;60.10
39777;DHT22;25453;48.162;14.510;2023-02-28T06:47:37;2.20;60.20
39777;DHT22;25453;48.162;14.510;2023-02-28T06:50:04;2.20;60.50
39777;DHT22;25453;48.162;14.510;2023-02-28T06:52:32;2.30;60.10
39777;DHT22;25453;48.162;14.510;2023-02-28T06:54:58;2.30;60.30
39777;DHT22;25453;48.162;14.510;2023-02-28T06:57:32;2.30;60.10
39777;DHT22;25453;48.162;14.510;2023-02-28T06:59:59;2.40;60.20
39777;DHT22;25453;48.162;14.510;2023-02-28T07:02:27;2.40;59.80
39777;DHT22;25453;48.162;14.510;2023-02-28T07:04:54;2.50;60.00
39777;DHT22;25453;48.162;14.510;2023-02-28T07:07:21;2.50;59.90
39777;DHT22;25453;48.162;14.510;2023-02-28T07:09:48;2.50;59.70
39777;DHT22;25453;48.162;14.510;2023-02-28T07:12:15;2.50;59.70
39777;DHT22;25453;48.162;14.510;2023-02-28T07:14:42;2.60;59.70
39777;DHT22;25453;48.162;14.510;2023-02-28T07:17:10;2.60;59.90
39777;DHT22;25453;48.162;14.510;2023-02-28T07:19:39;2.70;59.50
39777;DHT22;25453;48.162;14.510;2023-02-28T07:22:06;2.70;59.20
39777;DHT22;25453;48.162;14.510;2023-02-28T07:24:33;2.70;58.70
39777;DHT22;25453;48.162;14.510;2023-02-28T07:27:00;2.60;58.90
39777;DHT22;25453;48.162;14.510;2023-02-28T07:29:28;2.60;59.10
39777;DHT22;25453;48.162;14.510;2023-02-28T07:31:55;2.60;58.90
39777;DHT22;25453;48.162;14.510;2023-02-28T07:34:22;2.60;59.40
39777;DHT22;25453;48.162;14.510;2023-02-28T07:36:52;2.70;59.40
39777;DHT22;25453;48.162;14.510;2023-02-28T07:39:20;2.70;59.40
39777;DHT22;25453;48.162;14.510;2023-02-28T07:41:47;2.80;59.70
39777;DHT22;25453;48.162;14.510;2023-02-28T07:44:14;2.90;59.60
39777;DHT22;25453;48.162;14.510;2023-02-28T07:46:41;3.00;59.40
39777;DHT22;25453;48.162;14.510;2023-02-28T07:49:08;3.00;59.10
39777;DHT22;25453;48.162;14.510;2023-02-28T07:51:35;3.10;58.50
39777;DHT22;25453;48.162;14.510;2023-02-28T07:54:02;3.10;58.60
39777;DHT22;25453;48.162;14.510;2023-02-28T07:56:29;3.10;58.50
39777;DHT22;25453;48.162;14.510;2023-02-28T07:58:57;3.10;58.20
39777;DHT22;25453;48.162;14.510;2023-02-28T08:01:24;3.10;58.50
39777;DHT22;25453;48.162;14.510;2023-02-28T08:03:51;3.20;58.80
39777;DHT22;25453;48.162;14.510;2023-02-28T08:06:19;3.30;59.20
39777;DHT22;25453;48.162;14.510;2023-02-28T08:08:46;3.40;58.60
39777;DHT22;25453;48.162;14.510;2023-02-28T08:11:14;3.50;58.60
39777;DHT22;25453;48.162;14.510;2023-02-28T08:13:41;3.60;57.80
39777;DHT22;25453;48.162;14.510;2023-02-28T08:16:11;3.70;56.90
39777;DHT22;25453;48.162;14.510;2023-02-28T08:18:38;3.70;56.70
39777;DHT22;25453;48.162;14.510;2023-02-28T08:21:09;3.80;56.30
39777;DHT22;25453;48.162;14.510;2023-02-28T08:23:36;3.80;57.00
39777;DHT22;25453;48.162;14.510;2023-02-28T08:26:03;3.90;57.30
39777;DHT22;25453;48.162;14.510;2023-02-28T08:28:30;4.00;56.70
39777;DHT22;25453;48.162;14.510;2023-02-28T08:30:57;4.10;56.90
39777;DHT22;25453;48.162;14.510;2023-02-28T08:33:25;4.20;57.30
39777;DHT22;25453;48.162;14.510;2023-02-28T08:35:56;4.30;57.50
39777;DHT22;25453;48.162;14.510;2023-02-28T08:38:24;4.50;56.70
39777;DHT22;25453;48.162;14.510;2023-02-28T08:40:57;4.70;56.10
39777;DHT22;25453;48.162;14.510;2023-02-28T08:43:24;4.80;55.90
39777;DHT22;25453;48.162;14.510;2023-02-28T08:45:52;4.90;56.10
39777;DHT22;25453;48.162;14.510;2023-02-28T08:48:19;5.00;56.20
39777;DHT22;25453;48.162;14.510;2023-02-28T08:50:58;5.20;55.10
39777;DHT22;25453;48.162;14.510;2023-02-28T08:53:33;5.30;55.10
39777;DHT22;25453;48.162;14.510;2023-02-28T08:56:18;5.40;54.70
39777;DHT22;25453;48.162;14.510;2023-02-28T08:58:45;5.60;54.60
39777;DHT22;25453;48.162;14.510;2023-02-28T09:01:14;5.70;54.60
39777;DHT22;25453;48.162;14.510;2023-02-28T09:03:41;5.90;54.40
39777;DHT22;25453;48.162;14.510;2023-02-28T09:06:09;6.10;53.70
39777;DHT22;25453;48.162;14.510;2023-02-28T09:08:36;6.20;54.30
39777;DHT22;25453;48.162;14.510;2023-02-28T09:11:03;6.40;54.50
39777;DHT22;25453;48.162;14.510;2023-02-28T09:13:31;6.70;53.70
39777;DHT22;25453;48.162;14.510;2023-02-28T09:15:59;6.90;53.60
39777;DHT22;25453;48.162;14.510;2023-02-28T09:18:26;7.10;51.30
39777;DHT22;25453;48.162;14.510;2023-02-28T09:20:54;7.20;52.20
39777;DHT22;25453;48.162;14.510;2023-02-28T09:23:21;7.40;53.40
39777;DHT22;25453;48.162;14.510;2023-02-28T09:25:49;7.70;52.50
39777;DHT22;25453;48.162;14.510;2023-02-28T09:28:16;8.00;53.30
39777;DHT22;25453;48.162;14.510;2023-02-28T09:30:44;8.30;52.10
39777;DHT22;25453;48.162;14.510;2023-02-28T09:33:11;8.60;51.20
39777;DHT22;25453;48.162;14.510;2023-02-28T09:35:38;8.80;50.60
39777;DHT22;25453;48.162;14.510;2023-02-28T09:38:04;9.10;49.90
39777;DHT22;25453;48.162;14.510;2023-02-28T09:40:31;9.30;49.90
39777;DHT22;25453;48.162;14.510;2023-02-28T09:43:02;9.40;49.20
39777;DHT22;25453;48.162;14.510;2023-02-28T09:45:36;9.50;47.70
39777;DHT22;25453;48.162;14.510;2023-02-28T09:48:06;9.60;47.40
39777;DHT22;25453;48.162;14.510;2023-02-28T09:50:41;9.60;45.50
39777;DHT22;25453;48.162;14.510;2023-02-28T09:53:33;9.50;45.50
39777;DHT22;25453;48.162;14.510;2023-02-28T09:56:11;9.50;46.50
39777;DHT22;25453;48.162;14.510;2023-02-28T09:58:45;9.50;46.40
39777;DHT22;25453;48.162;14.510;2023-02-28T10:04:08;9.70;46.20
39777;DHT22;25453;48.162;14.510;2023-02-28T10:06:46;9.70;44.60
39777;DHT22;25453;48.162;14.510;2023-02-28T10:11:45;9.80;45.90
39777;DHT22;25453;48.162;14.510;2023-02-28T10:14:19;9.80;45.40
39777;DHT22;25453;48.162;14.510;2023-02-28T10:17:00;9.80;44.00
39777;DHT22;25453;48.162;14.510;2023-02-28T10:19:35;9.70;45.10
39777;DHT22;25453;48.162;14.510;2023-02-28T10:24:39;9.90;45.00
39777;DHT22;25453;48.162;14.510;2023-02-28T10:27:20;10.00;45.40
39777;DHT22;25453;48.162;14.510;2023-02-28T10:29:49;10.20;45.10
39777;DHT22;25453;48.162;14.510;2023-02-28T10:32:17;10.20;45.00
39777;DHT22;25453;48.162;14.510;2023-02-28T10:34:45;10.20;45.00
39777;DHT22;25453;48.162;14.510;2023-02-28T10:37:17;10.30;45.30
39777;DHT22;25453;48.162;14.510;2023-02-28T10:39:46;10.30;43.80
39777;DHT22;25453;48.162;14.510;2023-02-28T10:42:21;10.20;43.30
39777;DHT22;25453;48.162;14.510;2023-02-28T10:44:48;10.10;43.60
39777;DHT22;25453;48.162;14.510;2023-02-28T10:47:16;10.00;44.10
39777;DHT22;25453;48.162;14.510;2023-02-28T10:49:47;10.10;44.70
39777;DHT22;25453;48.162;14.510;2023-02-28T10:52:32;10.30;44.80
39777;DHT22;25453;48.162;14.510;2023-02-28T10:55:21;10.40;44.00
39777;DHT22;25453;48.162;14.510;2023-02-28T10:57:46;10.60;44.70
39777;DHT22;25453;48.162;14.510;2023-02-28T11:00:16;10.70;44.30
39777;DHT22;25453;48.162;14.510;2023-02-28T11:02:43;10.80;44.40
39777;DHT22;25453;48.162;14.510;2023-02-28T11:05:30;10.90;44.10
39777;DHT22;25453;48.162;14.510;2023-02-28T11:08:19;11.00;44.00
39777;DHT22;25453;48.162;14.510;2023-02-28T11:10:53;11.00;44.00
39777;DHT22;25453;48.162;14.510;2023-02-28T11:13:21;11.10;43.90
39777;DHT22;25453;48.162;14.510;2023-02-28T11:15:52;11.30;43.40
39777;DHT22;25453;48.162;14.510;2023-02-28T11:18:21;11.30;43.60
39777;DHT22;25453;48.162;14.510;2023-02-28T11:20:50;11.50;43.20
39777;DHT22;25453;48.162;14.510;2023-02-28T11:23:17;11.50;43.20
39777;DHT22;25453;48.162;14.510;2023-02-28T11:25:49;11.50;43.30
39777;DHT22;25453;48.162;14.510;2023-02-28T11:28:30;11.60;42.90
39777;DHT22;25453;48.162;14.510;2023-02-28T11:36:21;11.60;42.60
39777;DHT22;25453;48.162;14.510;2023-02-28T11:38:54;11.60;42.20
39777;DHT22;25453;48.162;14.510;2023-02-28T12:02:24;11.50;43.00
39777;DHT22;25453;48.162;14.510;2023-02-28T12:04:53;11.60;42.90
39777;DHT22;25453;48.162;14.510;2023-02-28T12:07:34;11.60;42.50
39777;DHT22;25453;48.162;14.510;2023-02-28T12:10:17;11.50;42.20
39777;DHT22;25453;48.162;14.510;2023-02-28T12:16:33;11.30;42.90
39777;DHT22;25453;48.162;14.510;2023-02-28T12:21:08;11.50;43.50
39777;DHT22;25453;48.162;14.510;2023-02-28T12:23:43;11.60;43.50
39777;DHT22;25453;48.162;14.510;2023-02-28T12:26:27;11.70;43.40
39777;DHT22;25453;48.162;14.510;2023-02-28T12:29:08;11.70;43.40
39777;DHT22;25453;48.162;14.510;2023-02-28T12:31:38;11.80;43.10
39777;DHT22;25453;48.162;14.510;2023-02-28T12:37:15;11.70;42.90
39777;DHT22;25453;48.162;14.510;2023-02-28T12:39:44;11.70;43.20
39777;DHT22;25453;48.162;14.510;2023-02-28T12:42:18;11.70;43.30
39777;DHT22;25453;48.162;14.510;2023-02-28T12:44:49;11.60;43.10
39777;DHT22;25453;48.162;14.510;2023-02-28T12:47:18;11.50;43.10
39777;DHT22;25453;48.162;14.510;2023-02-28T12:52:13;11.40;43.10
39777;DHT22;25453;48.162;14.510;2023-02-28T12:54:56;11.40;43.20
39777;DHT22;25453;48.162;14.510;2023-02-28T13:00:19;11.30;43.50
39777;DHT22;25453;48.162;14.510;2023-02-28T13:10:23;11.20;43.60
39777;DHT22;25453;48.162;14.510;2023-02-28T13:12:51;11.10;44.00
39777;DHT22;25453;48.162;14.510;2023-02-28T13:15:25;11.10;43.90
39777;DHT22;25453;48.162;14.510;2023-02-28T13:17:56;11.00;43.60
39777;DHT22;25453;48.162;14.510;2023-02-28T13:20:24;10.90;43.40
39777;DHT22;25453;48.162;14.510;2023-02-28T13:22:52;10.80;43.90
39777;DHT22;25453;48.162;14.510;2023-02-28T13:27:50;10.60;44.20
39777;DHT22;25453;48.162;14.510;2023-02-28T13:38:37;10.40;44.40
39777;DHT22;25453;48.162;14.510;2023-02-28T13:44:09;10.30;44.90
39777;DHT22;25453;48.162;14.510;2023-02-28T14:02:47;10.20;45.60
39777;DHT22;25453;48.162;14.510;2023-02-28T14:05:18;10.20;45.50
39777;DHT22;25453;48.162;14.510;2023-02-28T14:07:49;10.20;45.70
39777;DHT22;25453;48.162;14.510;2023-02-28T14:10:33;10.10;45.60
39777;DHT22;25453;48.162;14.510;2023-02-28T14:18:10;9.90;46.00
39777;DHT22;25453;48.162;14.510;2023-02-28T14:20:40;9.90;45.90
39777;DHT22;25453;48.162;14.510;2023-02-28T14:23:13;9.90;45.80
39777;DHT22;25453;48.162;14.510;2023-02-28T14:25:53;9.80;46.00
39777;DHT22;25453;48.162;14.510;2023-02-28T14:34:17;9.80;46.70
39777;DHT22;25453;48.162;14.510;2023-02-28T14:36:47;9.80;46.70
39777;DHT22;25453;48.162;14.510;2023-02-28T14:39:16;9.70;46.70
39777;DHT22;25453;48.162;14.510;2023-02-28T14:41:44;9.70;46.80
39777;DHT22;25453;48.162;14.510;2023-02-28T14:46:44;9.40;46.80
39777;DHT22;25453;48.162;14.510;2023-02-28T14:49:30;9.20;47.00
39777;DHT22;25453;48.162;14.510;2023-02-28T14:54:28;9.10;47.80
39777;DHT22;25453;48.162;14.510;2023-02-28T14:56:56;9.10;48.30
39777;DHT22;25453;48.162;14.510;2023-02-28T15:01:52;9.10;48.40
39777;DHT22;25453;48.162;14.510;2023-02-28T15:04:26;9.10;48.50
39777;DHT22;25453;48.162;14.510;2023-02-28T15:09:36;9.00;48.60
39777;DHT22;25453;48.162;14.510;2023-02-28T15:12:03;9.00;48.90
39777;DHT22;25453;48.162;14.510;2023-02-28T15:14:30;8.90;48.80
39777;DHT22;25453;48.162;14.510;2023-02-28T15:16:59;8.90;49.00
39777;DHT22;25453;48.162;14.510;2023-02-28T15:22:05;8.90;53.90
39777;DHT22;25453;48.162;14.510;2023-02-28T15:24:40;9.00;51.20
39777;DHT22;25453;48.162;14.510;2023-02-28T15:27:12;9.00;50.20
39777;DHT22;25453;48.162;14.510;2023-02-28T15:29:44;8.90;50.00
39777;DHT22;25453;48.162;14.510;2023-02-28T15:32:31;8.80;49.90
39777;DHT22;25453;48.162;14.510;2023-02-28T15:34:59;8.80;50.00
39777;DHT22;25453;48.162;14.510;2023-02-28T15:40:30;8.70;50.10
39777;DHT22;25453;48.162;14.510;2023-02-28T15:42:58;8.60;50.10
39777;DHT22;25453;48.162;14.510;2023-02-28T15:45:26;8.50;50.20
39777;DHT22;25453;48.162;14.510;2023-02-28T15:47:54;8.50;50.20
39777;DHT22;25453;48.162;14.510;2023-02-28T15:50:27;8.40;50.40
39777;DHT22;25453;48.162;14.510;2023-02-28T15:52:56;8.30;50.40
39777;DHT22;25453;48.162;14.510;2023-02-28T15:55:24;8.30;50.40
39777;DHT22;25453;48.162;14.510;2023-02-28T15:57:53;8.30;50.60
39777;DHT22;25453;48.162;14.510;2023-02-28T16:00:22;8.20;50.70
39777;DHT22;25453;48.162;14.510;2023-02-28T16:02:50;8.20;50.80
39777;DHT22;25453;48.162;14.510;2023-02-28T16:05:30;8.20;50.90
39777;DHT22;25453;48.162;14.510;2023-02-28T16:08:11;8.20;51.10
39777;DHT22;25453;48.162;14.510;2023-02-28T16:10:38;8.20;51.20
39777;DHT22;25453;48.162;14.510;2023-02-28T16:13:05;8.20;51.20
39777;DHT22;25453;48.162;14.510;2023-02-28T16:15:35;8.10;51.10
39777;DHT22;25453;48.162;14.510;2023-02-28T16:18:08;8.10;51.40
39777;DHT22;25453;48.162;14.510;2023-02-28T16:20:36;8.10;51.50
39777;DHT22;25453;48.162;14.510;2023-02-28T16:23:04;8.00;51.60
39777;DHT22;25453;48.162;14.510;2023-02-28T16:25:35;8.00;51.50
39777;DHT22;25453;48.162;14.510;2023-02-28T16:28:02;7.90;51.60
39777;DHT22;25453;48.162;14.510;2023-02-28T16:30:30;7.90;51.50
39777;DHT22;25453;48.162;14.510;2023-02-28T16:32:58;7.90;51.60
39777;DHT22;25453;48.162;14.510;2023-02-28T16:35:25;7.80;51.60
39777;DHT22;25453;48.162;14.510;2023-02-28T16:37:52;7.80;51.50
39777;DHT22;25453;48.162;14.510;2023-02-28T16:40:22;7.80;51.50
39777;DHT22;25453;48.162;14.510;2023-02-28T16:42:50;7.70;51.40
39777;DHT22;25453;48.162;14.510;2023-02-28T16:45:18;7.70;51.40
39777;DHT22;25453;48.162;14.510;2023-02-28T16:47:46;7.60;51.40
39777;DHT22;25453;48.162;14.510;2023-02-28T16:50:18;7.60;51.50
39777;DHT22;25453;48.162;14.510;2023-02-28T16:52:45;7.60;51.50
39777;DHT22;25453;48.162;14.510;2023-02-28T16:55:13;7.60;51.70
39777;DHT22;25453;48.162;14.510;2023-02-28T16:57:40;7.60;51.60
39777;DHT22;25453;48.162;14.510;2023-02-28T17:00:08;7.50;51.60
39777;DHT22;25453;48.162;14.510;2023-02-28T17:02:37;7.50;51.70
39777;DHT22;25453;48.162;14.510;2023-02-28T17:05:08;7.50;51.80
39777;DHT22;25453;48.162;14.510;2023-02-28T17:07:36;7.40;51.70
39777;DHT22;25453;48.162;14.510;2023-02-28T17:10:08;7.40;51.80
39777;DHT22;25453;48.162;14.510;2023-02-28T17:12:37;7.40;51.60
39777;DHT22;25453;48.162;14.510;2023-02-28T17:15:05;7.30;51.60
39777;DHT22;25453;48.162;14.510;2023-02-28T17:17:33;7.30;51.80
39777;DHT22;25453;48.162;14.510;2023-02-28T17:20:00;7.20;51.70
39777;DHT22;25453;48.162;14.510;2023-02-28T17:22:27;7.20;51.70
39777;DHT22;25453;48.162;14.510;2023-02-28T17:24:54;7.10;51.80
39777;DHT22;25453;48.162;14.510;2023-02-28T17:27:25;7.10;52.00
39777;DHT22;25453;48.162;14.510;2023-02-28T17:29:52;7.10;51.90
39777;DHT22;25453;48.162;14.510;2023-02-28T17:32:19;7.10;52.10
39777;DHT22;25453;48.162;14.510;2023-02-28T17:34:46;7.10;52.00
39777;DHT22;25453;48.162;14.510;2023-02-28T17:37:13;7.10;52.00
39777;DHT22;25453;48.162;14.510;2023-02-28T17:39:40;7.10;52.20
39777;DHT22;25453;48.162;14.510;2023-02-28T17:42:07;7.10;52.30
39777;DHT22;25453;48.162;14.510;2023-02-28T17:44:34;7.10;52.30
39777;DHT22;25453;48.162;14.510;2023-02-28T17:47:01;7.10;52.20
39777;DHT22;25453;48.162;14.510;2023-02-28T17:49:28;7.10;52.20
39777;DHT22;25453;48.162;14.510;2023-02-28T17:51:55;7.00;52.20
39777;DHT22;25453;48.162;14.510;2023-02-28T17:54:22;7.00;52.20
39777;DHT22;25453;48.162;14.510;2023-02-28T17:56:49;7.00;53.90
39777;DHT22;25453;48.162;14.510;2023-02-28T17:59:15;7.10;53.30
39777;DHT22;25453;48.162;14.510;2023-02-28T18:01:42;7.20;52.90
39777;DHT22;25453;48.162;14.510;2023-02-28T18:04:09;7.10;52.70
39777;DHT22;25453;48.162;14.510;2023-02-28T18:06:37;7.10;52.70
39777;DHT22;25453;48.162;14.510;2023-02-28T18:09:17;7.10;52.80
39777;DHT22;25453;48.162;14.510;2023-02-28T18:11:51;7.10;52.80
39777;DHT22;25453;48.162;14.510;2023-02-28T18:14:19;7.10;52.90
39777;DHT22;25453;48.162;14.510;2023-02-28T18:16:47;7.10;53.00
39777;DHT22;25453;48.162;14.510;2023-02-28T18:19:14;7.10;53.00